Time;durP1;ratioP1;P1;durP2;ratioP2;P2;SDS_P1;SDS_P2;PMS_P1;PMS_P2;Temp;Humidity;BMP_temperature;BMP_pressure;BME280_temperature;BME280_humidity;BME280_pressure;Samples;Min_cycle;Max_cycle;Signal;HPM_P1;HPM_P2
2022/07/17 00:00:26;;;;;;;6.75;2.72;;;;;;;16.78;57.65;102566.06;5132425;27;20050;-61
2022/07/17 00:02:52;;;;;;;6.43;3.22;;;;;;;16.65;58.02;102567.72;5131348;27;20537;-61
2022/07/17 00:05:17;;;;;;;11.23;3.10;;;;;;;16.62;58.13;102571.50;5113899;27;20023;-61
2022/07/17 00:07:43;;;;;;;5.93;2.72;;;;;;;16.52;58.46;102576.53;5113485;27;20092;-61
2022/07/17 00:10:09;;;;;;;5.25;2.80;;;;;;;16.52;58.99;102568.47;5114634;27;20046;-61
2022/07/17 00:12:35;;;;;;;9.35;3.20;;;;;;;16.48;58.75;102569.63;5131724;27;20023;-61
2022/07/17 00:15:01;;;;;;;7.43;2.88;;;;;;;16.46;59.05;102576.03;5132553;27;20065;-61
2022/07/17 00:17:26;;;;;;;6.15;2.67;;;;;;;16.55;58.69;102573.66;5132411;27;20509;-61
2022/07/17 00:19:51;;;;;;;5.22;2.58;;;;;;;16.46;58.93;102574.22;5114357;27;20035;-61
2022/07/17 00:22:17;;;;;;;10.80;3.47;;;;;;;16.40;59.27;102588.03;5131469;27;20035;-61
2022/07/17 00:24:42;;;;;;;9.18;3.08;;;;;;;16.38;59.54;102584.56;5132513;27;20027;-61
2022/07/17 00:27:10;;;;;;;8.38;3.08;;;;;;;16.30;59.74;102578.81;5095987;27;20204;-61
2022/07/17 00:29:36;;;;;;;6.43;3.00;;;;;;;16.23;59.91;102578.28;5112667;27;20444;-62
2022/07/17 00:32:01;;;;;;;9.15;3.28;;;;;;;16.13;60.20;102577.97;5112718;27;20110;-61
2022/07/17 00:34:27;;;;;;;8.27;3.40;;;;;;;16.19;60.18;102574.06;5132689;27;20394;-61
2022/07/17 00:36:52;;;;;;;10.82;3.20;;;;;;;16.10;60.31;102582.66;5131073;27;20073;-61
2022/07/17 00:39:18;;;;;;;6.22;3.38;;;;;;;16.10;60.28;102580.84;5113262;27;20050;-61
2022/07/17 00:41:47;;;;;;;7.45;3.30;;;;;;;16.12;60.25;102576.25;5091333;27;20093;-62
2022/07/17 00:44:13;;;;;;;6.22;3.33;;;;;;;16.11;60.18;102579.00;5112820;27;20393;-62
2022/07/17 00:46:40;;;;;;;8.05;3.33;;;;;;;16.00;60.57;102571.59;5130752;27;20033;-61
2022/07/17 00:49:06;;;;;;;8.85;3.58;;;;;;;16.10;60.15;102580.84;5131590;27;20030;-61
2022/07/17 00:51:33;;;;;;;6.20;3.53;;;;;;;16.08;60.48;102577.34;5131116;27;20035;-61
2022/07/17 00:54:01;;;;;;;10.23;3.70;;;;;;;16.12;60.22;102584.31;5132189;27;20015;-62
2022/07/17 00:56:28;;;;;;;7.55;3.85;;;;;;;15.98;60.84;102580.69;5130833;27;20099;-61
2022/07/17 00:58:53;;;;;;;6.80;3.33;;;;;;;15.94;60.86;102579.13;5129795;27;20102;-61
2022/07/17 01:01:22;;;;;;;13.77;4.18;;;;;;;15.98;60.56;102569.97;5130395;27;20062;-61
2022/07/17 01:03:50;;;;;;;6.80;3.53;;;;;;;15.95;60.84;102576.38;5131642;27;20042;-61
2022/07/17 01:06:15;;;;;;;8.55;4.00;;;;;;;15.94;60.83;102574.63;5112220;27;20056;-61
2022/07/17 01:08:41;;;;;;;12.00;3.58;;;;;;;15.92;60.81;102567.63;5128864;27;20047;-61
2022/07/17 01:11:08;;;;;;;7.90;3.78;;;;;;;15.86;61.13;102567.03;5112887;27;20122;-61
2022/07/17 01:13:34;;;;;;;10.48;3.70;;;;;;;15.86;61.22;102560.81;5131119;27;20058;-61
2022/07/17 01:16:00;;;;;;;8.35;3.75;;;;;;;15.86;61.04;102563.47;5111845;27;20524;-61
2022/07/17 01:18:25;;;;;;;12.88;3.80;;;;;;;15.72;61.32;102566.94;5131827;27;20401;-61
2022/07/17 01:20:50;;;;;;;7.40;3.55;;;;;;;15.64;61.80;102561.97;5130390;27;20031;-61
2022/07/17 01:23:18;;;;;;;10.70;3.90;;;;;;;15.59;61.72;102564.09;5111383;27;20023;-61
2022/07/17 01:25:45;;;;;;;10.15;3.78;;;;;;;15.42;62.36;102573.06;5128963;27;20080;-61
2022/07/17 01:28:11;;;;;;;10.95;4.28;;;;;;;15.52;62.44;102567.19;5128946;27;20423;-62
2022/07/17 01:30:36;;;;;;;5.50;3.45;;;;;;;15.53;61.48;102560.84;5130888;27;20035;-61
2022/07/17 01:33:05;;;;;;;6.80;3.63;;;;;;;15.51;61.92;102563.66;5129191;27;20023;-61
2022/07/17 01:35:31;;;;;;;9.68;4.55;;;;;;;15.44;62.41;102560.44;5111132;28;20039;-61
2022/07/17 01:37:57;;;;;;;9.10;4.15;;;;;;;15.49;62.24;102562.84;5129945;27;20030;-61
2022/07/17 01:40:25;;;;;;;14.13;4.32;;;;;;;15.41;62.46;102555.25;5112099;27;20031;-61
2022/07/17 01:42:50;;;;;;;7.43;3.88;;;;;;;15.44;62.15;102559.56;5130053;27;20517;-61
2022/07/17 01:45:17;;;;;;;9.52;3.70;;;;;;;15.27;62.77;102560.53;5079368;27;20043;-61
2022/07/17 01:47:43;;;;;;;7.57;4.20;;;;;;;15.38;62.67;102562.59;5111610;28;20030;-61
2022/07/17 01:50:10;;;;;;;9.20;3.65;;;;;;;15.29;62.96;102561.28;5130411;28;20035;-61
2022/07/17 01:52:38;;;;;;;7.20;3.70;;;;;;;15.19;62.92;102568.13;5111748;28;20405;-61
2022/07/17 01:55:06;;;;;;;6.63;3.75;;;;;;;15.30;62.84;102564.84;5113300;28;20155;-61
2022/07/17 01:57:31;;;;;;;8.35;3.90;;;;;;;15.25;62.94;102562.41;5129754;28;20031;-61
2022/07/17 01:59:58;;;;;;;9.40;3.90;;;;;;;15.22;63.12;102571.50;5130759;28;20027;-61
2022/07/17 02:02:26;;;;;;;6.45;3.75;;;;;;;15.17;63.25;102570.88;5129339;28;20497;-61
2022/07/17 02:04:51;;;;;;;5.50;3.85;;;;;;;15.20;62.99;102567.16;5129639;28;20480;-61
2022/07/17 02:07:17;;;;;;;11.68;3.90;;;;;;;15.13;63.24;102574.69;5110663;28;20192;-61
2022/07/17 02:09:44;;;;;;;8.68;3.47;;;;;;;15.11;63.35;102576.56;5112199;28;20034;-61
2022/07/17 02:12:11;;;;;;;6.93;3.83;;;;;;;15.03;63.62;102573.47;5112044;28;20031;-61
2022/07/17 02:14:37;;;;;;;8.63;3.65;;;;;;;15.01;63.83;102569.13;5129247;28;20111;-61
2022/07/17 02:17:03;;;;;;;6.32;3.75;;;;;;;14.96;63.96;102570.22;5130306;28;20069;-61
2022/07/17 02:19:29;;;;;;;9.55;3.88;;;;;;;15.02;63.70;102562.81;5129279;28;20031;-61
2022/07/17 02:21:55;;;;;;;7.90;3.90;;;;;;;14.86;64.37;102570.81;5130827;28;20050;-61
2022/07/17 02:24:20;;;;;;;7.18;3.92;;;;;;;14.86;64.21;102566.31;5128637;28;20027;-61
2022/07/17 02:26:47;;;;;;;8.43;3.50;;;;;;;14.84;64.17;102572.69;5130468;28;20231;-61
2022/07/17 02:29:14;;;;;;;8.23;3.63;;;;;;;14.77;64.57;102577.53;5129718;28;20027;-61
2022/07/17 02:31:40;;;;;;;8.80;3.78;;;;;;;14.73;64.60;102563.41;5130318;28;20030;-61
2022/07/17 02:34:06;;;;;;;6.45;3.40;;;;;;;14.64;64.79;102566.59;5130066;28;20394;-61
2022/07/17 02:36:32;;;;;;;8.23;3.80;;;;;;;14.58;65.03;102564.22;5110695;28;20030;-61
2022/07/17 02:38:58;;;;;;;6.40;3.58;;;;;;;14.67;65.05;102569.09;5132382;27;20019;-61
2022/07/17 02:41:24;;;;;;;7.43;3.90;;;;;;;14.57;64.67;102549.13;5115472;27;20023;-61
2022/07/17 02:43:52;;;;;;;7.35;3.70;;;;;;;14.53;65.19;102559.13;5133785;27;20041;-61
2022/07/17 02:46:18;;;;;;;8.90;4.28;;;;;;;14.49;65.41;102559.31;5132616;27;20034;-61
2022/07/17 02:48:45;;;;;;;5.65;3.65;;;;;;;14.43;65.47;102551.63;5133677;27;20510;-61
2022/07/17 02:51:11;;;;;;;7.55;4.00;;;;;;;14.46;65.38;102552.31;5134347;27;20023;-61
2022/07/17 02:53:37;;;;;;;7.20;3.58;;;;;;;14.32;65.79;102547.69;5115530;27;20050;-61
2022/07/17 02:56:03;;;;;;;7.28;3.45;;;;;;;14.35;65.69;102551.13;5115359;27;20023;-61
2022/07/17 02:58:28;;;;;;;9.77;4.22;;;;;;;14.32;65.68;102538.78;5114027;27;20087;-61
2022/07/17 03:00:54;;;;;;;10.43;3.67;;;;;;;14.38;65.78;102550.97;5116254;27;20038;-61
2022/07/17 03:03:20;;;;;;;8.52;3.90;;;;;;;14.35;65.94;102545.78;5113517;27;20039;-61
2022/07/17 03:05:46;;;;;;;6.38;3.90;;;;;;;14.18;66.37;102562.72;5114475;27;20030;-61
2022/07/17 03:08:13;;;;;;;5.50;3.88;;;;;;;14.12;65.99;102561.22;5131699;27;20015;-61
2022/07/17 03:10:39;;;;;;;8.82;4.03;;;;;;;13.98;66.75;102559.22;5114938;27;20022;-61
2022/07/17 03:13:04;;;;;;;5.63;3.72;;;;;;;14.18;66.63;102566.25;5133268;27;20027;-61
2022/07/17 03:15:29;;;;;;;7.13;3.58;;;;;;;14.14;66.32;102578.06;5114952;27;20023;-61
2022/07/17 03:17:55;;;;;;;7.38;4.03;;;;;;;14.12;66.36;102582.63;5114846;27;20129;-61
2022/07/17 03:20:21;;;;;;;5.82;3.60;;;;;;;14.04;66.55;102577.66;5115871;27;20023;-61
2022/07/17 03:22:47;;;;;;;7.93;3.92;;;;;;;14.08;66.53;102581.91;5132463;27;20118;-61
2022/07/17 03:25:13;;;;;;;7.50;4.20;;;;;;;14.10;66.81;102587.19;5086180;27;20393;-61
2022/07/17 03:27:38;;;;;;;7.75;4.35;;;;;;;14.02;67.01;102574.19;5132106;27;20038;-61
2022/07/17 03:30:05;;;;;;;9.55;4.50;;;;;;;14.03;67.01;102569.69;5134042;27;20046;-61
2022/07/17 03:32:33;;;;;;;8.43;4.22;;;;;;;13.98;66.94;102569.06;5131764;27;20033;-61
2022/07/17 03:34:58;;;;;;;8.65;4.00;;;;;;;14.04;66.62;102572.31;5133222;27;20023;-61
2022/07/17 03:37:24;;;;;;;10.10;4.00;;;;;;;14.02;66.92;102567.97;5114522;27;20114;-61
2022/07/17 03:39:49;;;;;;;8.00;4.53;;;;;;;13.91;67.33;102573.84;5132178;27;20123;-61
2022/07/17 03:42:15;;;;;;;6.93;4.55;;;;;;;13.88;67.05;102571.31;5113340;27;20042;-61
2022/07/17 03:44:40;;;;;;;7.50;4.18;;;;;;;13.77;67.72;102566.50;5114183;27;20027;-61
2022/07/17 03:47:06;;;;;;;7.03;4.03;;;;;;;13.89;67.50;102566.88;5113071;27;20031;-61
2022/07/17 03:49:34;;;;;;;7.25;4.35;;;;;;;13.84;67.68;102561.72;5113712;27;20606;-61
2022/07/17 03:52:02;;;;;;;8.20;3.70;;;;;;;13.90;67.55;102568.59;5132749;27;20054;-61
2022/07/17 03:54:28;;;;;;;6.53;3.97;;;;;;;13.79;67.73;102577.13;5131580;27;20027;-62
2022/07/17 03:56:53;;;;;;;5.75;3.83;;;;;;;13.86;67.77;102575.91;5131183;27;20042;-61
2022/07/17 03:59:22;;;;;;;7.28;4.20;;;;;;;13.75;68.18;102571.06;5114045;27;20038;-61
2022/07/17 04:01:47;;;;;;;11.77;4.20;;;;;;;13.78;67.95;102556.69;5132703;27;20367;-61
2022/07/17 04:04:13;;;;;;;5.25;3.67;;;;;;;13.88;67.77;102570.47;5131103;27;20492;-61
2022/07/17 04:06:38;;;;;;;6.47;3.85;;;;;;;13.77;68.31;102576.34;5095879;27;20095;-61
2022/07/17 04:09:06;;;;;;;7.57;4.00;;;;;;;13.74;68.32;102581.84;5112695;27;20034;-61
2022/07/17 04:11:31;;;;;;;7.00;4.22;;;;;;;13.71;68.43;102582.00;5130333;27;20114;-61
2022/07/17 04:13:57;;;;;;;7.30;4.38;;;;;;;13.78;68.36;102586.09;5114168;27;20110;-61
2022/07/17 04:16:22;;;;;;;7.45;4.38;;;;;;;13.71;68.53;102590.88;5132593;27;20084;-61
2022/07/17 04:18:48;;;;;;;5.80;3.67;;;;;;;13.68;68.74;102585.69;5113727;27;20095;-61
2022/07/17 04:21:13;;;;;;;10.20;4.80;;;;;;;13.77;68.43;102587.91;5129273;27;20031;-61
2022/07/17 04:23:39;;;;;;;9.52;4.38;;;;;;;13.73;68.45;102599.69;5131902;27;20102;-61
2022/07/17 04:26:08;;;;;;;8.48;4.20;;;;;;;13.76;68.74;102594.19;5129592;27;20031;-61
2022/07/17 04:28:34;;;;;;;9.20;4.50;;;;;;;13.73;69.01;102597.00;5112510;27;20019;-61
2022/07/17 04:31:02;;;;;;;10.52;4.18;;;;;;;13.84;68.95;102593.81;5113838;27;20026;-61
2022/07/17 04:33:28;;;;;;;10.15;4.82;;;;;;;13.83;68.84;102597.44;5129985;27;20054;-62
2022/07/17 04:35:53;;;;;;;7.95;3.63;;;;;;;13.79;69.08;102593.16;5114689;27;20406;-61
2022/07/17 04:38:19;;;;;;;5.65;4.20;;;;;;;13.83;69.18;102595.63;5131200;27;20390;-61
2022/07/17 04:40:46;;;;;;;5.22;4.10;;;;;;;13.83;69.20;102592.97;5131653;27;20079;-61
2022/07/17 04:43:12;;;;;;;6.25;4.32;;;;;;;13.91;69.08;102587.22;5096327;27;20121;-61
2022/07/17 04:45:37;;;;;;;5.07;3.85;;;;;;;14.01;68.84;102582.31;5131801;27;20414;-61
2022/07/17 04:48:02;;;;;;;8.15;4.68;;;;;;;14.02;68.78;102578.66;5131250;27;20489;-61
2022/07/17 04:50:28;;;;;;;7.65;4.53;;;;;;;14.11;68.43;102582.69;5131090;27;20126;-61
2022/07/17 04:52:54;;;;;;;6.45;4.40;;;;;;;14.18;68.35;102594.84;5112581;27;20095;-61
2022/07/17 04:55:20;;;;;;;8.65;4.55;;;;;;;14.14;68.43;102599.47;5112474;27;20439;-61
2022/07/17 04:57:46;;;;;;;10.35;4.95;;;;;;;14.14;68.99;102591.44;5094921;27;20586;-61
2022/07/17 05:00:15;;;;;;;8.45;4.43;;;;;;;14.27;67.86;102600.59;5131866;27;20495;-61
2022/07/17 05:02:41;;;;;;;11.55;5.05;;;;;;;14.32;67.80;102611.94;5114535;27;20030;-61
2022/07/17 05:05:09;;;;;;;8.73;4.90;;;;;;;14.34;68.19;102610.97;5132314;27;20023;-61
2022/07/17 05:07:34;;;;;;;8.63;4.50;;;;;;;14.41;68.12;102610.59;5128959;27;20023;-61
2022/07/17 05:10:00;;;;;;;7.55;5.05;;;;;;;14.46;67.97;102607.69;5113764;27;20030;-61
2022/07/17 05:12:26;;;;;;;9.85;4.70;;;;;;;14.51;68.10;102605.63;5131561;27;20509;-61
2022/07/17 05:14:52;;;;;;;10.20;4.53;;;;;;;14.71;67.26;102601.97;5113570;27;20031;-61
2022/07/17 05:17:19;;;;;;;9.60;4.25;;;;;;;14.72;67.31;102601.88;5113231;27;20038;-61
2022/07/17 05:19:45;;;;;;;9.30;4.30;;;;;;;14.84;67.20;102597.69;5131219;27;20035;-61
2022/07/17 05:22:13;;;;;;;7.88;4.75;;;;;;;14.97;66.01;102596.09;5131290;27;20030;-61
2022/07/17 05:24:39;;;;;;;7.35;4.38;;;;;;;14.94;65.24;102590.91;5114416;27;20027;-61
2022/07/17 05:27:05;;;;;;;8.80;4.43;;;;;;;15.06;65.46;102594.72;5131951;27;20075;-61
2022/07/17 05:29:31;;;;;;;8.45;4.55;;;;;;;15.06;65.39;102599.19;5066505;27;20034;-61
2022/07/17 05:31:57;;;;;;;11.38;5.38;;;;;;;15.16;65.11;102604.00;5132074;27;20461;-61
2022/07/17 05:34:22;;;;;;;8.70;4.28;;;;;;;15.19;64.62;102602.97;5079086;27;20056;-61
2022/07/17 05:36:49;;;;;;;12.48;4.15;;;;;;;15.18;64.50;102606.59;5112189;27;20030;-61
2022/07/17 05:39:14;;;;;;;7.85;4.40;;;;;;;15.21;64.04;102603.75;5111374;28;20027;-61
2022/07/17 05:41:41;;;;;;;6.50;4.43;;;;;;;15.19;63.70;102609.19;5110834;27;20027;-61
2022/07/17 05:44:08;;;;;;;8.43;4.40;;;;;;;15.22;64.17;102611.69;5130506;27;20382;-61
2022/07/17 05:46:33;;;;;;;8.88;4.50;;;;;;;15.25;64.77;102604.44;5112206;28;20038;-61
2022/07/17 05:48:59;;;;;;;10.77;4.68;;;;;;;15.40;64.56;102596.41;5131029;27;20031;-61
2022/07/17 05:51:25;;;;;;;11.70;4.90;;;;;;;15.47;63.57;102596.97;5111101;28;20102;-61
2022/07/17 05:53:50;;;;;;;12.07;4.90;;;;;;;15.56;63.15;102600.91;5131318;28;20110;-61
2022/07/17 05:56:16;;;;;;;11.02;5.07;;;;;;;15.62;63.09;102604.13;5112218;28;20023;-61
2022/07/17 05:58:42;;;;;;;13.45;4.80;;;;;;;15.63;62.82;102576.34;5111934;28;20036;-61
2022/07/17 06:01:07;;;;;;;11.93;5.20;;;;;;;15.76;62.33;102605.19;5129114;27;20023;-61
2022/07/17 06:03:35;;;;;;;8.63;4.38;;;;;;;15.79;62.43;102603.19;5108807;28;20042;-61
2022/07/17 06:06:00;;;;;;;11.65;5.68;;;;;;;15.90;62.61;102597.22;5113276;28;20050;-61
2022/07/17 06:08:26;;;;;;;8.82;4.57;;;;;;;15.96;62.73;102588.81;5112311;28;20437;-61
2022/07/17 06:10:52;;;;;;;8.65;5.10;;;;;;;16.11;63.25;102584.38;5111767;28;20486;-61
2022/07/17 06:13:18;;;;;;;10.45;5.45;;;;;;;16.23;62.23;102580.09;5116009;27;20066;-61
2022/07/17 06:15:43;;;;;;;12.05;5.95;;;;;;;16.33;61.70;102581.31;5133077;27;20023;-62
2022/07/17 06:18:08;;;;;;;8.77;4.72;;;;;;;16.37;61.88;102581.97;5116780;27;20027;-61
2022/07/17 06:20:34;;;;;;;10.30;5.22;;;;;;;16.50;61.36;102578.47;5100246;27;20042;-61
2022/07/17 06:22:59;;;;;;;11.90;5.47;;;;;;;16.60;61.46;102570.72;5116702;27;20486;-62
2022/07/17 06:25:27;;;;;;;8.57;4.90;;;;;;;16.67;61.18;102571.19;5115146;27;20031;-61
2022/07/17 06:27:52;;;;;;;13.38;5.50;;;;;;;16.64;60.16;102580.28;5135696;27;20023;-61
2022/07/17 06:30:18;;;;;;;9.30;4.72;;;;;;;16.73;60.74;102584.25;5115828;27;20019;-61
2022/07/17 06:32:43;;;;;;;11.52;5.45;;;;;;;16.80;60.78;102585.66;5134588;27;20027;-61
2022/07/17 06:35:11;;;;;;;8.50;4.82;;;;;;;16.87;60.34;102596.88;5116074;27;20034;-61
2022/07/17 06:37:37;;;;;;;6.05;3.97;;;;;;;16.91;59.19;102584.97;5134287;27;20027;-62
2022/07/17 06:40:07;;;;;;;9.25;4.72;;;;;;;17.08;59.67;102595.53;5134702;27;20050;-62
2022/07/17 06:42:33;;;;;;;12.98;4.60;;;;;;;17.15;58.59;102602.28;5133570;27;20500;-61
2022/07/17 06:44:58;;;;;;;8.63;4.38;;;;;;;17.18;58.40;102610.16;5114627;27;20052;-62
2022/07/17 06:47:26;;;;;;;9.15;4.60;;;;;;;17.32;58.71;102617.31;5115862;27;20400;-62
2022/07/17 06:49:52;;;;;;;10.02;5.13;;;;;;;17.47;58.67;102618.16;5134554;27;20061;-61
2022/07/17 06:52:18;;;;;;;9.88;4.95;;;;;;;17.64;58.17;102617.94;5098583;27;20358;-61
2022/07/17 06:54:46;;;;;;;7.60;4.70;;;;;;;17.71;57.55;102622.00;5134091;27;20054;-61
2022/07/17 06:57:11;;;;;;;8.45;4.70;;;;;;;17.70;57.50;102628.31;5099780;27;20466;-61
2022/07/17 06:59:37;;;;;;;9.75;4.60;;;;;;;17.80;56.81;102625.94;5114640;27;20030;-61
2022/07/17 07:02:07;;;;;;;8.65;4.82;;;;;;;17.93;55.74;102618.78;5133816;27;20096;-62
2022/07/17 07:04:32;;;;;;;8.30;4.47;;;;;;;18.02;55.46;102638.84;5134405;27;20083;-61
2022/07/17 07:06:57;;;;;;;7.65;4.43;;;;;;;18.19;55.43;102636.88;5111788;27;20027;-61
2022/07/17 07:09:23;;;;;;;7.35;4.53;;;;;;;18.20;55.57;102636.75;5095262;27;20035;-61
2022/07/17 07:11:50;;;;;;;10.57;4.82;;;;;;;18.27;55.51;102640.78;5133735;27;20478;-65
2022/07/17 07:14:17;;;;;;;10.70;4.75;;;;;;;18.31;55.95;102641.44;5133777;27;20072;-65
2022/07/17 07:16:42;;;;;;;11.30;4.80;;;;;;;18.19;55.98;102645.81;5112974;27;20102;-66
2022/07/17 07:19:08;;;;;;;11.52;5.47;;;;;;;18.23;56.18;102647.31;5133308;27;20545;-66
2022/07/17 07:21:34;;;;;;;8.45;3.95;;;;;;;18.24;55.42;102659.00;5130647;27;20029;-65
2022/07/17 07:23:59;;;;;;;9.65;3.85;;;;;;;18.21;55.50;102656.50;5097196;27;20031;-66
2022/07/17 07:26:25;;;;;;;8.18;4.28;;;;;;;18.26;56.44;102649.81;5113388;27;20035;-65
2022/07/17 07:28:50;;;;;;;6.28;3.80;;;;;;;18.20;55.07;102650.22;5133159;27;20023;-65
2022/07/17 07:31:16;;;;;;;7.53;4.30;;;;;;;18.20;56.36;102650.22;5133713;27;20520;-66
2022/07/17 07:33:42;;;;;;;10.63;4.20;;;;;;;18.24;54.90;102642.81;5113866;27;20019;-65
2022/07/17 07:36:10;;;;;;;10.65;4.80;;;;;;;18.28;56.18;102634.41;5114355;27;20030;-65
2022/07/17 07:38:36;;;;;;;9.60;4.45;;;;;;;18.41;55.01;102628.19;5115885;27;20031;-65
2022/07/17 07:41:03;;;;;;;9.43;4.32;;;;;;;18.52;54.78;102631.88;5133679;27;20027;-68
2022/07/17 07:43:29;;;;;;;7.30;3.75;;;;;;;18.56;55.07;102632.53;5097165;27;20031;-65
2022/07/17 07:45:55;;;;;;;10.15;3.78;;;;;;;18.61;55.70;102642.03;5132846;27;20182;-66
2022/07/17 07:48:22;;;;;;;7.78;3.75;;;;;;;18.67;55.05;102638.06;5132835;27;20031;-66
2022/07/17 07:50:48;;;;;;;11.68;3.72;;;;;;;18.74;54.54;102647.50;5132514;27;20065;-65
2022/07/17 07:53:14;;;;;;;6.28;3.20;;;;;;;18.76;54.29;102650.06;5129833;27;20070;-66
2022/07/17 07:55:39;;;;;;;5.65;3.15;;;;;;;18.75;54.76;102646.53;5113374;27;20550;-67
2022/07/17 07:58:10;;;;;;;9.02;3.47;;;;;;;18.85;53.92;102652.13;5132185;27;20114;-66
2022/07/17 08:00:36;;;;;;;6.03;2.80;;;;;;;18.90;53.62;102647.28;5112937;27;21239;-69
2022/07/17 08:03:02;;;;;;;7.53;3.35;;;;;;;18.87;53.87;102650.19;5133148;27;20033;-67
2022/07/17 08:05:28;;;;;;;6.20;3.47;;;;;;;18.98;53.78;102642.22;5113638;27;20055;-69
2022/07/17 08:07:53;;;;;;;4.38;2.95;;;;;;;19.15;54.04;102648.25;5097292;27;20073;-66
2022/07/17 08:10:19;;;;;;;7.20;3.33;;;;;;;19.25;54.10;102647.50;5129586;27;20035;-65
2022/07/17 08:12:45;;;;;;;8.02;3.38;;;;;;;19.36;52.98;102654.84;5132718;27;20027;-68
2022/07/17 08:15:11;;;;;;;7.35;3.25;;;;;;;19.37;52.79;102656.56;5133080;27;20027;-66
2022/07/17 08:17:36;;;;;;;9.32;4.03;;;;;;;19.43;52.82;102658.81;5132588;27;20035;-64
2022/07/17 08:20:02;;;;;;;10.30;3.92;;;;;;;19.43;53.56;102656.13;5096620;27;20039;-66
2022/07/17 08:22:28;;;;;;;6.93;3.28;;;;;;;19.50;53.05;102657.41;5131909;27;20031;-62
2022/07/17 08:24:54;;;;;;;5.80;2.92;;;;;;;19.63;51.26;102654.69;5131343;27;20026;-65
2022/07/17 08:27:19;;;;;;;7.35;2.83;;;;;;;19.67;51.19;102658.91;5131786;27;20458;-65
2022/07/17 08:29:44;;;;;;;6.43;2.55;;;;;;;19.74;51.02;102660.19;5131734;27;20031;-63
2022/07/17 08:32:10;;;;;;;14.98;3.58;;;;;;;19.73;50.48;102649.50;5081251;27;20106;-62
2022/07/17 08:34:36;;;;;;;4.28;2.45;;;;;;;19.80;51.30;102666.13;5114141;27;20176;-63
2022/07/17 08:37:04;;;;;;;9.38;3.40;;;;;;;19.79;50.91;102654.44;5131268;27;20042;-62
2022/07/17 08:39:29;;;;;;;6.93;2.90;;;;;;;19.87;49.24;102652.06;5132744;27;20026;-69
2022/07/17 08:41:55;;;;;;;7.70;2.90;;;;;;;19.92;50.55;102659.81;5113836;27;20031;-69
2022/07/17 08:44:20;;;;;;;7.05;2.35;;;;;;;19.92;51.20;102649.88;5096602;27;20042;-68
2022/07/17 08:46:46;;;;;;;6.65;2.80;;;;;;;19.83;50.69;102641.59;5130594;27;20034;-71
2022/07/17 08:49:13;;;;;;;7.15;2.80;;;;;;;19.87;49.24;102645.78;5130733;27;20038;-69
2022/07/17 08:51:42;;;;;;;6.40;2.40;;;;;;;19.90;48.79;102649.13;5129692;27;20039;-70
2022/07/17 08:54:10;;;;;;;8.70;2.47;;;;;;;20.02;48.34;102647.34;5132443;27;20050;-72
2022/07/17 08:56:38;;;;;;;4.75;2.45;;;;;;;19.98;48.27;102653.97;5131870;27;20031;-70
2022/07/17 08:59:05;;;;;;;8.02;2.90;;;;;;;20.05;46.10;102655.22;5079280;27;20054;-69
2022/07/17 09:01:30;;;;;;;10.20;2.75;;;;;;;20.17;48.64;102648.91;5130938;27;20054;-68
2022/07/17 09:04:06;;;;;;;7.45;2.95;;;;;;;20.18;48.82;102645.25;5131989;27;20102;-68
2022/07/17 09:06:34;;;;;;;5.93;2.47;;;;;;;20.23;46.93;102654.81;5129953;27;20493;-67
2022/07/17 09:09:11;;;;;;;8.88;3.15;;;;;;;20.38;49.93;102651.84;5131946;27;20396;-68
2022/07/17 09:11:48;;;;;;;4.65;2.28;;;;;;;20.34;47.25;102668.41;5130656;27;20019;-71
2022/07/17 09:14:16;;;;;;;6.15;2.58;;;;;;;20.30;46.56;102648.00;5129850;27;20160;-70
2022/07/17 09:16:56;;;;;;;4.15;2.08;;;;;;;20.42;45.00;102647.91;5111137;27;20023;-68
2022/07/17 09:19:33;;;;;;;6.15;2.30;;;;;;;20.48;44.37;102633.06;5130336;27;20025;-71
2022/07/17 09:22:08;;;;;;;3.33;1.90;;;;;;;20.57;44.41;102648.63;5128804;27;20031;-71
2022/07/17 09:24:43;;;;;;;4.15;2.10;;;;;;;20.72;45.01;102649.28;5130493;27;20381;-71
2022/07/17 09:27:34;;;;;;;3.65;2.00;;;;;;;20.69;44.91;102649.50;5088208;28;20577;-70
2022/07/17 09:30:06;;;;;;;4.97;2.10;;;;;;;20.79;45.98;102645.09;5085856;28;20503;-72
2022/07/17 09:32:37;;;;;;;6.18;1.90;;;;;;;20.98;46.11;102636.41;5088399;28;20075;-73
2022/07/17 09:35:05;;;;;;;5.50;2.28;;;;;;;20.98;44.74;102649.09;5087543;28;20027;-73
2022/07/17 09:37:34;;;;;;;7.53;2.63;;;;;;;20.95;44.75;102644.78;5070909;28;20917;-73
2022/07/17 09:40:03;;;;;;;7.45;2.03;;;;;;;20.96;45.47;102638.38;5087003;28;20032;-71
2022/07/17 09:42:33;;;;;;;6.68;2.33;;;;;;;21.08;46.45;102631.13;5087088;28;20505;-71
2022/07/17 09:45:04;;;;;;;7.57;2.80;;;;;;;21.11;46.98;102639.00;5071614;28;20035;-71
2022/07/17 09:47:31;;;;;;;5.97;2.60;;;;;;;21.02;46.37;102626.22;5087333;28;20039;-71
2022/07/17 09:49:59;;;;;;;4.57;2.10;;;;;;;21.04;45.08;102633.22;5088530;28;20040;-70
2022/07/17 09:52:29;;;;;;;6.22;2.60;;;;;;;21.16;46.33;102636.81;5088135;28;20093;-71
2022/07/17 09:54:56;;;;;;;6.35;2.70;;;;;;;21.29;46.76;102640.22;5088797;28;20032;-71
2022/07/17 09:57:29;;;;;;;7.05;2.83;;;;;;;21.36;45.13;102629.84;5090890;28;20047;-71
2022/07/17 09:59:56;;;;;;;5.63;2.38;;;;;;;21.42;44.94;102629.34;5131760;28;20064;-71
2022/07/17 10:02:24;;;;;;;5.85;2.50;;;;;;;21.40;45.01;102633.16;5131538;28;20019;-71
2022/07/17 10:04:51;;;;;;;5.70;2.65;;;;;;;21.42;44.74;102632.03;5113579;28;20034;-71
2022/07/17 10:07:20;;;;;;;7.65;2.15;;;;;;;21.55;44.75;102640.03;5113251;28;20058;-71
2022/07/17 10:09:46;;;;;;;8.35;2.33;;;;;;;21.58;42.45;102633.50;5131577;28;20083;-70
2022/07/17 10:12:13;;;;;;;6.03;2.78;;;;;;;21.57;42.30;102634.50;5131360;28;20085;-71
2022/07/17 10:14:41;;;;;;;6.90;2.75;;;;;;;21.72;44.14;102633.22;5131059;28;20060;-70
2022/07/17 10:17:11;;;;;;;9.57;2.35;;;;;;;21.85;43.17;102644.75;5131310;28;20027;-71
2022/07/17 10:19:56;;;;;;;6.03;2.28;;;;;;;22.01;43.84;102636.25;5131413;28;20019;-71
2022/07/17 10:22:22;;;;;;;6.30;2.00;;;;;;;22.05;40.87;102640.41;5112672;28;20039;-71
2022/07/17 10:24:52;;;;;;;5.95;2.22;;;;;;;22.19;41.30;102633.88;5131573;28;20027;-71
2022/07/17 10:27:19;;;;;;;7.80;2.67;;;;;;;22.03;39.21;102636.09;5131478;28;20054;-71
2022/07/17 10:29:47;;;;;;;4.10;2.25;;;;;;;22.18;39.10;102633.00;5113366;28;20023;-71
2022/07/17 10:32:19;;;;;;;4.43;1.90;;;;;;;22.27;39.03;102638.66;5131448;28;20019;-70
2022/07/17 10:34:52;;;;;;;6.70;2.10;;;;;;;22.28;38.44;102637.66;5131124;28;20027;-71
2022/07/17 10:37:24;;;;;;;4.82;1.83;;;;;;;22.48;38.13;102630.53;5130500;28;20539;-71
2022/07/17 10:39:53;;;;;;;6.10;2.20;;;;;;;22.36;36.67;102638.72;5131195;28;20111;-71
2022/07/17 10:42:46;;;;;;;5.20;1.88;;;;;;;22.33;37.17;102640.84;5131359;28;20492;-71
2022/07/17 10:45:20;;;;;;;5.50;2.10;;;;;;;22.43;38.30;102633.63;5131561;28;20030;-71
2022/07/17 10:47:50;;;;;;;3.90;2.00;;;;;;;22.53;38.65;102625.56;5130847;28;20020;-71
2022/07/17 10:50:19;;;;;;;3.55;2.03;;;;;;;22.68;38.74;102627.84;5131263;28;20504;-71
2022/07/17 10:52:44;;;;;;;7.88;2.17;;;;;;;22.65;37.83;102621.81;5130370;28;20130;-71
2022/07/17 10:55:21;;;;;;;8.65;2.25;;;;;;;22.81;37.42;102627.63;5131473;28;20019;-70
2022/07/17 10:57:48;;;;;;;5.75;2.17;;;;;;;22.80;37.75;102630.50;5130714;27;20087;-71
2022/07/17 11:00:15;;;;;;;4.85;2.20;;;;;;;23.00;38.80;102629.63;5134019;27;20019;-71
2022/07/17 11:02:40;;;;;;;4.70;2.17;;;;;;;23.14;38.40;102636.53;5134751;27;20076;-71
2022/07/17 11:05:07;;;;;;;5.70;2.28;;;;;;;23.06;37.76;102625.50;5134942;27;20031;-71
2022/07/17 11:07:33;;;;;;;8.90;2.30;;;;;;;23.23;37.66;102630.28;5134026;27;20030;-72
2022/07/17 11:10:00;;;;;;;6.65;2.47;;;;;;;23.11;36.96;102628.66;5099777;27;20027;-71
2022/07/17 11:12:33;;;;;;;5.70;2.13;;;;;;;23.21;38.26;102636.88;5134914;27;20378;-71
2022/07/17 11:15:00;;;;;;;5.35;2.20;;;;;;;23.15;36.69;102630.13;5135068;27;20031;-71
2022/07/17 11:17:25;;;;;;;5.55;1.98;;;;;;;23.09;38.72;102627.97;5134181;27;20091;-71
2022/07/17 11:19:51;;;;;;;5.90;2.33;;;;;;;23.15;39.12;102615.69;5134884;27;20470;-71
2022/07/17 11:22:17;;;;;;;9.45;2.20;;;;;;;23.30;38.46;102622.50;5133939;27;20027;-72